sensor_id;sensor_type;location;lat;lon;timestamp;P1;durP1;ratioP1;P2;durP2;ratioP2
51985;SDS011;38002;53.296;6.600;2023-05-20T00:02:38;10.80;;;4.20;;
51985;SDS011;38002;53.296;6.600;2023-05-20T00:07:38;6.18;;;2.60;;
51985;SDS011;38002;53.296;6.600;2023-05-20T00:12:38;14.27;;;4.38;;
51985;SDS011;38002;53.296;6.600;2023-05-20T00:17:39;7.03;;;3.10;;
51985;SDS011;38002;53.296;6.600;2023-05-20T00:22:40;6.15;;;3.45;;
51985;SDS011;38002;53.296;6.600;2023-05-20T00:27:40;9.68;;;4.75;;
51985;SDS011;38002;53.296;6.600;2023-05-20T00:32:41;4.97;;;3.15;;
51985;SDS011;38002;53.296;6.600;2023-05-20T00:37:41;10.65;;;4.30;;
51985;SDS011;38002;53.296;6.600;2023-05-20T00:42:42;11.75;;;3.42;;
51985;SDS011;38002;53.296;6.600;2023-05-20T00:47:42;8.48;;;3.63;;
51985;SDS011;38002;53.296;6.600;2023-05-20T00:52:43;7.35;;;4.03;;
51985;SDS011;38002;53.296;6.600;2023-05-20T00:57:46;9.43;;;4.18;;
51985;SDS011;38002;53.296;6.600;2023-05-20T01:07:48;9.20;;;3.95;;
51985;SDS011;38002;53.296;6.600;2023-05-20T01:12:49;7.00;;;3.67;;
51985;SDS011;38002;53.296;6.600;2023-05-20T01:17:56;9.00;;;4.43;;
51985;SDS011;38002;53.296;6.600;2023-05-20T01:23:00;9.05;;;3.30;;
51985;SDS011;38002;53.296;6.600;2023-05-20T01:28:01;6.75;;;3.60;;
51985;SDS011;38002;53.296;6.600;2023-05-20T01:33:06;5.15;;;3.22;;
51985;SDS011;38002;53.296;6.600;2023-05-20T01:38:10;3.53;;;2.53;;
51985;SDS011;38002;53.296;6.600;2023-05-20T01:43:12;7.00;;;3.92;;
51985;SDS011;38002;53.296;6.600;2023-05-20T01:48:13;4.65;;;3.88;;
51985;SDS011;38002;53.296;6.600;2023-05-20T01:53:13;8.60;;;3.95;;
51985;SDS011;38002;53.296;6.600;2023-05-20T01:58:14;8.07;;;3.80;;
51985;SDS011;38002;53.296;6.600;2023-05-20T02:03:14;8.00;;;4.57;;
51985;SDS011;38002;53.296;6.600;2023-05-20T02:08:15;15.88;;;4.10;;
51985;SDS011;38002;53.296;6.600;2023-05-20T02:13:15;4.57;;;3.20;;
51985;SDS011;38002;53.296;6.600;2023-05-20T02:18:16;5.65;;;3.30;;
51985;SDS011;38002;53.296;6.600;2023-05-20T02:23:17;6.43;;;4.25;;
51985;SDS011;38002;53.296;6.600;2023-05-20T02:28:21;6.35;;;3.47;;
51985;SDS011;38002;53.296;6.600;2023-05-20T02:33:21;5.40;;;3.95;;
51985;SDS011;38002;53.296;6.600;2023-05-20T02:38:22;8.25;;;3.35;;
51985;SDS011;38002;53.296;6.600;2023-05-20T02:43:23;7.80;;;3.65;;
51985;SDS011;38002;53.296;6.600;2023-05-20T02:48:23;5.60;;;2.95;;
51985;SDS011;38002;53.296;6.600;2023-05-20T02:53:24;3.97;;;3.22;;
51985;SDS011;38002;53.296;6.600;2023-05-20T02:58:25;7.28;;;3.00;;
51985;SDS011;38002;53.296;6.600;2023-05-20T03:03:26;5.05;;;2.90;;
51985;SDS011;38002;53.296;6.600;2023-05-20T03:08:27;2.58;;;2.38;;
51985;SDS011;38002;53.296;6.600;2023-05-20T03:13:27;3.67;;;3.03;;
51985;SDS011;38002;53.296;6.600;2023-05-20T03:18:28;4.38;;;3.00;;
51985;SDS011;38002;53.296;6.600;2023-05-20T03:23:28;3.22;;;2.80;;
51985;SDS011;38002;53.296;6.600;2023-05-20T03:28:29;4.55;;;2.50;;
51985;SDS011;38002;53.296;6.600;2023-05-20T03:33:29;4.45;;;2.70;;
51985;SDS011;38002;53.296;6.600;2023-05-20T03:38:30;5.95;;;2.25;;
51985;SDS011;38002;53.296;6.600;2023-05-20T03:43:30;4.03;;;1.95;;
51985;SDS011;38002;53.296;6.600;2023-05-20T03:48:31;4.72;;;2.47;;
51985;SDS011;38002;53.296;6.600;2023-05-20T03:53:31;5.28;;;2.22;;
51985;SDS011;38002;53.296;6.600;2023-05-20T03:58:32;6.70;;;2.13;;
51985;SDS011;38002;53.296;6.600;2023-05-20T04:03:32;2.92;;;2.40;;
51985;SDS011;38002;53.296;6.600;2023-05-20T04:08:33;3.15;;;2.25;;
51985;SDS011;38002;53.296;6.600;2023-05-20T04:13:35;8.25;;;2.13;;
51985;SDS011;38002;53.296;6.600;2023-05-20T04:18:36;1.95;;;1.75;;
51985;SDS011;38002;53.296;6.600;2023-05-20T04:23:38;3.20;;;1.70;;
51985;SDS011;38002;53.296;6.600;2023-05-20T04:28:38;1.98;;;1.88;;
51985;SDS011;38002;53.296;6.600;2023-05-20T04:33:40;5.88;;;2.05;;
51985;SDS011;38002;53.296;6.600;2023-05-20T04:38:42;6.13;;;1.93;;
51985;SDS011;38002;53.296;6.600;2023-05-20T04:43:43;3.97;;;1.50;;
51985;SDS011;38002;53.296;6.600;2023-05-20T04:48:45;3.63;;;1.63;;
51985;SDS011;38002;53.296;6.600;2023-05-20T04:53:47;3.25;;;2.00;;
51985;SDS011;38002;53.296;6.600;2023-05-20T04:58:49;4.30;;;1.65;;
51985;SDS011;38002;53.296;6.600;2023-05-20T05:03:50;1.38;;;1.27;;
51985;SDS011;38002;53.296;6.600;2023-05-20T05:08:51;1.85;;;1.30;;
51985;SDS011;38002;53.296;6.600;2023-05-20T05:13:51;1.63;;;1.50;;
51985;SDS011;38002;53.296;6.600;2023-05-20T05:18:52;2.22;;;1.60;;
51985;SDS011;38002;53.296;6.600;2023-05-20T05:23:52;3.67;;;1.40;;
51985;SDS011;38002;53.296;6.600;2023-05-20T05:28:53;2.55;;;1.70;;
51985;SDS011;38002;53.296;6.600;2023-05-20T05:33:54;1.37;;;1.20;;
51985;SDS011;38002;53.296;6.600;2023-05-20T05:38:54;7.60;;;1.67;;
51985;SDS011;38002;53.296;6.600;2023-05-20T05:43:55;2.47;;;1.60;;
51985;SDS011;38002;53.296;6.600;2023-05-20T05:48:55;2.25;;;1.50;;
51985;SDS011;38002;53.296;6.600;2023-05-20T05:53:57;3.33;;;1.60;;
51985;SDS011;38002;53.296;6.600;2023-05-20T05:58:58;2.47;;;1.48;;
51985;SDS011;38002;53.296;6.600;2023-05-20T06:03:58;1.30;;;1.20;;
51985;SDS011;38002;53.296;6.600;2023-05-20T06:08:59;3.28;;;1.40;;
51985;SDS011;38002;53.296;6.600;2023-05-20T06:14:00;1.42;;;1.30;;
51985;SDS011;38002;53.296;6.600;2023-05-20T06:19:00;3.73;;;1.53;;
51985;SDS011;38002;53.296;6.600;2023-05-20T06:24:01;2.05;;;1.20;;
51985;SDS011;38002;53.296;6.600;2023-05-20T06:29:02;1.60;;;1.15;;
51985;SDS011;38002;53.296;6.600;2023-05-20T06:34:02;1.25;;;0.90;;
51985;SDS011;38002;53.296;6.600;2023-05-20T06:39:03;2.03;;;1.33;;
51985;SDS011;38002;53.296;6.600;2023-05-20T06:44:05;3.65;;;1.40;;
51985;SDS011;38002;53.296;6.600;2023-05-20T06:49:06;1.40;;;1.03;;
51985;SDS011;38002;53.296;6.600;2023-05-20T06:54:07;1.25;;;1.00;;
51985;SDS011;38002;53.296;6.600;2023-05-20T06:59:07;2.25;;;1.10;;
51985;SDS011;38002;53.296;6.600;2023-05-20T07:04:08;1.83;;;1.23;;
51985;SDS011;38002;53.296;6.600;2023-05-20T07:09:08;3.75;;;1.33;;
51985;SDS011;38002;53.296;6.600;2023-05-20T07:14:09;2.92;;;1.55;;
51985;SDS011;38002;53.296;6.600;2023-05-20T07:19:10;2.78;;;1.15;;
51985;SDS011;38002;53.296;6.600;2023-05-20T07:24:10;2.03;;;1.00;;
51985;SDS011;38002;53.296;6.600;2023-05-20T07:29:11;2.83;;;1.20;;
51985;SDS011;38002;53.296;6.600;2023-05-20T07:34:12;4.93;;;1.53;;
51985;SDS011;38002;53.296;6.600;2023-05-20T07:39:13;1.15;;;1.05;;
51985;SDS011;38002;53.296;6.600;2023-05-20T07:44:14;1.55;;;1.15;;
51985;SDS011;38002;53.296;6.600;2023-05-20T07:49:17;2.60;;;1.25;;
51985;SDS011;38002;53.296;6.600;2023-05-20T07:54:18;3.25;;;1.67;;
51985;SDS011;38002;53.296;6.600;2023-05-20T07:59:18;2.55;;;1.25;;
51985;SDS011;38002;53.296;6.600;2023-05-20T08:04:18;2.47;;;1.20;;
51985;SDS011;38002;53.296;6.600;2023-05-20T08:09:19;3.77;;;1.27;;
51985;SDS011;38002;53.296;6.600;2023-05-20T08:14:19;4.00;;;1.20;;
51985;SDS011;38002;53.296;6.600;2023-05-20T08:19:20;1.73;;;1.10;;
51985;SDS011;38002;53.296;6.600;2023-05-20T08:24:21;2.47;;;1.00;;
51985;SDS011;38002;53.296;6.600;2023-05-20T08:29:21;2.73;;;1.30;;
51985;SDS011;38002;53.296;6.600;2023-05-20T08:34:22;1.57;;;1.10;;
51985;SDS011;38002;53.296;6.600;2023-05-20T08:39:22;1.27;;;1.00;;
51985;SDS011;38002;53.296;6.600;2023-05-20T08:44:23;2.90;;;0.80;;
51985;SDS011;38002;53.296;6.600;2023-05-20T08:49:25;1.52;;;1.00;;
51985;SDS011;38002;53.296;6.600;2023-05-20T08:54:27;3.80;;;1.20;;
51985;SDS011;38002;53.296;6.600;2023-05-20T08:59:37;1.13;;;0.98;;
51985;SDS011;38002;53.296;6.600;2023-05-20T09:04:38;3.60;;;1.00;;
51985;SDS011;38002;53.296;6.600;2023-05-20T09:09:38;2.17;;;1.10;;
51985;SDS011;38002;53.296;6.600;2023-05-20T09:14:40;2.33;;;1.15;;
51985;SDS011;38002;53.296;6.600;2023-05-20T09:19:42;1.08;;;0.98;;
51985;SDS011;38002;53.296;6.600;2023-05-20T09:24:42;4.67;;;1.00;;
51985;SDS011;38002;53.296;6.600;2023-05-20T09:29:43;2.33;;;1.10;;
51985;SDS011;38002;53.296;6.600;2023-05-20T09:34:45;1.33;;;1.00;;
51985;SDS011;38002;53.296;6.600;2023-05-20T09:40:02;2.00;;;1.20;;
51985;SDS011;38002;53.296;6.600;2023-05-20T09:45:06;1.35;;;1.05;;
51985;SDS011;38002;53.296;6.600;2023-05-20T09:50:08;5.70;;;1.58;;
51985;SDS011;38002;53.296;6.600;2023-05-20T09:55:09;4.90;;;1.60;;
51985;SDS011;38002;53.296;6.600;2023-05-20T10:00:11;2.67;;;1.40;;
51985;SDS011;38002;53.296;6.600;2023-05-20T10:05:18;2.38;;;1.55;;
51985;SDS011;38002;53.296;6.600;2023-05-20T10:15:24;9.07;;;1.93;;
51985;SDS011;38002;53.296;6.600;2023-05-20T10:20:30;2.10;;;1.58;;
51985;SDS011;38002;53.296;6.600;2023-05-20T10:25:30;4.57;;;1.40;;
51985;SDS011;38002;53.296;6.600;2023-05-20T10:30:31;5.00;;;1.60;;
51985;SDS011;38002;53.296;6.600;2023-05-20T10:35:31;1.73;;;1.40;;
51985;SDS011;38002;53.296;6.600;2023-05-20T10:40:32;2.63;;;1.40;;
51985;SDS011;38002;53.296;6.600;2023-05-20T10:45:32;4.43;;;1.43;;
51985;SDS011;38002;53.296;6.600;2023-05-20T12:32:32;5.80;;;2.47;;
51985;SDS011;38002;53.296;6.600;2023-05-20T12:37:32;6.10;;;2.57;;
51985;SDS011;38002;53.296;6.600;2023-05-20T12:42:34;7.80;;;3.53;;
51985;SDS011;38002;53.296;6.600;2023-05-20T12:47:35;4.10;;;2.20;;
51985;SDS011;38002;53.296;6.600;2023-05-20T12:52:35;2.53;;;2.20;;
51985;SDS011;38002;53.296;6.600;2023-05-20T12:57:36;5.23;;;2.53;;
51985;SDS011;38002;53.296;6.600;2023-05-20T13:02:36;4.80;;;2.30;;
51985;SDS011;38002;53.296;6.600;2023-05-20T13:07:37;5.97;;;3.20;;
51985;SDS011;38002;53.296;6.600;2023-05-20T13:12:38;4.67;;;2.10;;
51985;SDS011;38002;53.296;6.600;2023-05-20T13:17:42;6.50;;;2.65;;
51985;SDS011;38002;53.296;6.600;2023-05-20T13:22:42;7.78;;;2.47;;
51985;SDS011;38002;53.296;6.600;2023-05-20T13:27:43;4.60;;;2.20;;
51985;SDS011;38002;53.296;6.600;2023-05-20T13:32:43;4.73;;;2.20;;
51985;SDS011;38002;53.296;6.600;2023-05-20T13:37:45;3.47;;;2.50;;
51985;SDS011;38002;53.296;6.600;2023-05-20T13:42:45;2.37;;;2.17;;
51985;SDS011;38002;53.296;6.600;2023-05-20T13:47:45;7.60;;;3.23;;
51985;SDS011;38002;53.296;6.600;2023-05-20T13:52:46;6.40;;;3.13;;
51985;SDS011;38002;53.296;6.600;2023-05-20T13:57:46;7.17;;;2.90;;
51985;SDS011;38002;53.296;6.600;2023-05-20T14:02:47;5.53;;;2.90;;
51985;SDS011;38002;53.296;6.600;2023-05-20T14:07:47;4.93;;;2.30;;
51985;SDS011;38002;53.296;6.600;2023-05-20T14:12:48;4.30;;;2.47;;
51985;SDS011;38002;53.296;6.600;2023-05-20T14:17:48;7.97;;;2.80;;
51985;SDS011;38002;53.296;6.600;2023-05-20T14:22:50;9.87;;;2.50;;
51985;SDS011;38002;53.296;6.600;2023-05-20T14:27:51;5.43;;;2.50;;
51985;SDS011;38002;53.296;6.600;2023-05-20T14:32:51;6.53;;;2.93;;
51985;SDS011;38002;53.296;6.600;2023-05-20T14:37:52;6.43;;;2.67;;
51985;SDS011;38002;53.296;6.600;2023-05-20T14:42:53;6.07;;;2.77;;
51985;SDS011;38002;53.296;6.600;2023-05-20T14:47:53;8.40;;;2.57;;
51985;SDS011;38002;53.296;6.600;2023-05-20T14:52:53;5.67;;;2.30;;
51985;SDS011;38002;53.296;6.600;2023-05-20T14:57:54;5.57;;;2.73;;
51985;SDS011;38002;53.296;6.600;2023-05-20T15:02:54;2.37;;;1.90;;
51985;SDS011;38002;53.296;6.600;2023-05-20T15:07:55;5.97;;;2.00;;
51985;SDS011;38002;53.296;6.600;2023-05-20T15:12:56;3.28;;;1.52;;
51985;SDS011;38002;53.296;6.600;2023-05-20T15:17:56;5.27;;;2.20;;
51985;SDS011;38002;53.296;6.600;2023-05-20T15:22:57;4.00;;;1.43;;
51985;SDS011;38002;53.296;6.600;2023-05-20T15:27:57;5.97;;;1.87;;
51985;SDS011;38002;53.296;6.600;2023-05-20T15:32:58;2.30;;;1.37;;
51985;SDS011;38002;53.296;6.600;2023-05-20T15:37:58;3.43;;;1.60;;
51985;SDS011;38002;53.296;6.600;2023-05-20T15:42:59;2.40;;;1.50;;
51985;SDS011;38002;53.296;6.600;2023-05-20T15:47:59;2.97;;;2.13;;
51985;SDS011;38002;53.296;6.600;2023-05-20T15:53:00;4.93;;;2.00;;
51985;SDS011;38002;53.296;6.600;2023-05-20T15:58:01;5.07;;;1.70;;
51985;SDS011;38002;53.296;6.600;2023-05-20T16:03:01;1.60;;;1.50;;
51985;SDS011;38002;53.296;6.600;2023-05-20T16:08:01;4.07;;;1.87;;
51985;SDS011;38002;53.296;6.600;2023-05-20T16:13:02;4.60;;;1.43;;
51985;SDS011;38002;53.296;6.600;2023-05-20T16:18:02;4.60;;;1.50;;
51985;SDS011;38002;53.296;6.600;2023-05-20T16:23:03;2.17;;;1.33;;
51985;SDS011;38002;53.296;6.600;2023-05-20T16:28:04;2.00;;;1.10;;
51985;SDS011;38002;53.296;6.600;2023-05-20T16:33:05;1.30;;;0.90;;
51985;SDS011;38002;53.296;6.600;2023-05-20T16:38:05;1.17;;;0.73;;
51985;SDS011;38002;53.296;6.600;2023-05-20T16:43:06;1.30;;;1.20;;
51985;SDS011;38002;53.296;6.600;2023-05-20T16:48:06;0.80;;;0.73;;
51985;SDS011;38002;53.296;6.600;2023-05-20T16:53:07;1.73;;;1.10;;
51985;SDS011;38002;53.296;6.600;2023-05-20T16:58:07;1.47;;;1.10;;
51985;SDS011;38002;53.296;6.600;2023-05-20T17:03:07;1.03;;;0.93;;
51985;SDS011;38002;53.296;6.600;2023-05-20T17:08:08;0.93;;;0.87;;
51985;SDS011;38002;53.296;6.600;2023-05-20T17:13:08;2.23;;;1.40;;
51985;SDS011;38002;53.296;6.600;2023-05-20T17:18:09;1.20;;;1.00;;
51985;SDS011;38002;53.296;6.600;2023-05-20T17:23:10;1.30;;;1.00;;
51985;SDS011;38002;53.296;6.600;2023-05-20T17:28:10;1.77;;;1.07;;
51985;SDS011;38002;53.296;6.600;2023-05-20T17:33:11;7.70;;;1.43;;
51985;SDS011;38002;53.296;6.600;2023-05-20T17:38:11;5.87;;;1.60;;
51985;SDS011;38002;53.296;6.600;2023-05-20T17:43:12;2.70;;;1.30;;
51985;SDS011;38002;53.296;6.600;2023-05-20T17:48:12;2.30;;;1.20;;
51985;SDS011;38002;53.296;6.600;2023-05-20T17:53:13;5.78;;;1.58;;
51985;SDS011;38002;53.296;6.600;2023-05-20T17:58:14;2.87;;;1.13;;
51985;SDS011;38002;53.296;6.600;2023-05-20T18:03:14;3.03;;;1.43;;
51985;SDS011;38002;53.296;6.600;2023-05-20T18:08:16;2.65;;;1.55;;
51985;SDS011;38002;53.296;6.600;2023-05-20T18:13:18;3.10;;;1.70;;
51985;SDS011;38002;53.296;6.600;2023-05-20T18:18:18;6.23;;;1.90;;
51985;SDS011;38002;53.296;6.600;2023-05-20T18:23:18;3.53;;;1.60;;
51985;SDS011;38002;53.296;6.600;2023-05-20T18:28:19;5.20;;;2.00;;
51985;SDS011;38002;53.296;6.600;2023-05-20T18:33:19;2.47;;;1.87;;
51985;SDS011;38002;53.296;6.600;2023-05-20T18:38:23;1.55;;;1.45;;
51985;SDS011;38002;53.296;6.600;2023-05-20T18:43:24;5.37;;;2.20;;
51985;SDS011;38002;53.296;6.600;2023-05-20T18:48:24;2.93;;;2.40;;
51985;SDS011;38002;53.296;6.600;2023-05-20T18:53:25;3.87;;;1.93;;
51985;SDS011;38002;53.296;6.600;2023-05-20T18:58:25;3.23;;;1.90;;
51985;SDS011;38002;53.296;6.600;2023-05-20T19:08:28;1.88;;;1.67;;
51985;SDS011;38002;53.296;6.600;2023-05-20T19:13:28;2.50;;;1.63;;
51985;SDS011;38002;53.296;6.600;2023-05-20T19:18:29;5.88;;;2.20;;
51985;SDS011;38002;53.296;6.600;2023-05-20T19:23:30;1.97;;;1.80;;
51985;SDS011;38002;53.296;6.600;2023-05-20T19:28:31;1.85;;;1.75;;
51985;SDS011;38002;53.296;6.600;2023-05-20T19:33:31;7.07;;;1.73;;
51985;SDS011;38002;53.296;6.600;2023-05-20T19:38:32;1.80;;;1.53;;
51985;SDS011;38002;53.296;6.600;2023-05-20T19:43:32;1.50;;;1.37;;
51985;SDS011;38002;53.296;6.600;2023-05-20T19:48:33;3.90;;;2.23;;
51985;SDS011;38002;53.296;6.600;2023-05-20T19:53:33;4.80;;;2.33;;
51985;SDS011;38002;53.296;6.600;2023-05-20T19:58:34;2.43;;;1.87;;
51985;SDS011;38002;53.296;6.600;2023-05-20T20:03:34;2.43;;;2.20;;
51985;SDS011;38002;53.296;6.600;2023-05-20T20:08:35;3.03;;;2.10;;
51985;SDS011;38002;53.296;6.600;2023-05-20T20:13:39;5.05;;;3.70;;
51985;SDS011;38002;53.296;6.600;2023-05-20T20:18:39;4.23;;;2.70;;
51985;SDS011;38002;53.296;6.600;2023-05-20T20:23:40;2.10;;;2.00;;
51985;SDS011;38002;53.296;6.600;2023-05-20T20:28:40;6.30;;;2.60;;
51985;SDS011;38002;53.296;6.600;2023-05-20T20:33:41;3.80;;;2.47;;
51985;SDS011;38002;53.296;6.600;2023-05-20T20:38:42;3.47;;;3.17;;
51985;SDS011;38002;53.296;6.600;2023-05-20T20:43:45;4.93;;;3.15;;
51985;SDS011;38002;53.296;6.600;2023-05-20T20:48:46;4.93;;;2.77;;
51985;SDS011;38002;53.296;6.600;2023-05-20T20:53:46;3.53;;;2.93;;
51985;SDS011;38002;53.296;6.600;2023-05-20T20:58:47;3.63;;;2.15;;
51985;SDS011;38002;53.296;6.600;2023-05-20T21:03:52;6.38;;;2.10;;
51985;SDS011;38002;53.296;6.600;2023-05-20T21:08:53;4.90;;;2.73;;
51985;SDS011;38002;53.296;6.600;2023-05-20T21:13:57;6.53;;;2.58;;
51985;SDS011;38002;53.296;6.600;2023-05-20T21:18:57;2.47;;;2.27;;
51985;SDS011;38002;53.296;6.600;2023-05-20T21:23:57;4.40;;;2.80;;
51985;SDS011;38002;53.296;6.600;2023-05-20T21:28:58;4.37;;;2.63;;
51985;SDS011;38002;53.296;6.600;2023-05-20T21:33:58;3.97;;;2.53;;
51985;SDS011;38002;53.296;6.600;2023-05-20T21:38:59;3.30;;;2.07;;
51985;SDS011;38002;53.296;6.600;2023-05-20T21:43:59;3.97;;;2.63;;
51985;SDS011;38002;53.296;6.600;2023-05-20T21:49:00;2.43;;;2.23;;
51985;SDS011;38002;53.296;6.600;2023-05-20T21:54:00;2.63;;;2.40;;
51985;SDS011;38002;53.296;6.600;2023-05-20T21:59:02;3.15;;;2.35;;
51985;SDS011;38002;53.296;6.600;2023-05-20T22:04:03;3.40;;;2.77;;
51985;SDS011;38002;53.296;6.600;2023-05-20T22:09:03;2.67;;;2.47;;
51985;SDS011;38002;53.296;6.600;2023-05-20T22:14:04;3.80;;;2.47;;
51985;SDS011;38002;53.296;6.600;2023-05-20T22:19:05;4.47;;;3.10;;
51985;SDS011;38002;53.296;6.600;2023-05-20T22:24:06;2.47;;;2.28;;
51985;SDS011;38002;53.296;6.600;2023-05-20T22:29:07;5.53;;;2.47;;
51985;SDS011;38002;53.296;6.600;2023-05-20T22:34:08;3.03;;;2.60;;
51985;SDS011;38002;53.296;6.600;2023-05-20T22:39:08;4.93;;;3.13;;
51985;SDS011;38002;53.296;6.600;2023-05-20T22:44:11;3.58;;;2.38;;
51985;SDS011;38002;53.296;6.600;2023-05-20T22:49:12;3.00;;;2.80;;
51985;SDS011;38002;53.296;6.600;2023-05-20T22:54:13;6.28;;;2.60;;
51985;SDS011;38002;53.296;6.600;2023-05-20T22:59:13;3.40;;;3.10;;
51985;SDS011;38002;53.296;6.600;2023-05-20T23:04:14;2.80;;;2.57;;
51985;SDS011;38002;53.296;6.600;2023-05-20T23:09:14;2.37;;;2.17;;
51985;SDS011;38002;53.296;6.600;2023-05-20T23:14:15;4.33;;;2.57;;
51985;SDS011;38002;53.296;6.600;2023-05-20T23:19:15;5.90;;;3.00;;
51985;SDS011;38002;53.296;6.600;2023-05-20T23:24:16;4.30;;;3.03;;
51985;SDS011;38002;53.296;6.600;2023-05-20T23:29:16;3.20;;;2.90;;
51985;SDS011;38002;53.296;6.600;2023-05-20T23:34:17;3.77;;;2.70;;
51985;SDS011;38002;53.296;6.600;2023-05-20T23:39:17;3.27;;;3.03;;
51985;SDS011;38002;53.296;6.600;2023-05-20T23:44:18;3.77;;;3.10;;
51985;SDS011;38002;53.296;6.600;2023-05-20T23:49:18;9.50;;;3.10;;
51985;SDS011;38002;53.296;6.600;2023-05-20T23:54:23;4.78;;;2.97;;
51985;SDS011;38002;53.296;6.600;2023-05-20T23:59:23;4.70;;;3.17;;
